Time;durP1;ratioP1;P1;durP2;ratioP2;P2;SDS_P1;SDS_P2;PMS_P1;PMS_P2;Temp;Humidity;BMP_temperature;BMP_pressure;BME280_temperature;BME280_humidity;BME280_pressure;Samples;Min_cycle;Max_cycle;Signal;HPM_P1;HPM_P2
2021/05/10 00:01:39;;;;;;;3.00;1.60;;;;;;;18.28;34.50;94702.06;5038549;28;20120;-68
2021/05/10 00:04:05;;;;;;;2.80;1.42;;;;;;;18.27;34.20;94702.41;5031422;28;20132;-68
2021/05/10 00:06:31;;;;;;;2.40;1.70;;;;;;;18.35;34.29;94704.94;5030226;28;20044;-68
2021/05/10 00:08:57;;;;;;;2.53;1.60;;;;;;;18.42;34.00;94707.03;5032609;28;20291;-68
2021/05/10 00:11:24;;;;;;;1.40;1.30;;;;;;;18.40;34.06;94701.25;5048746;28;20087;-69
2021/05/10 00:13:51;;;;;;;1.52;1.40;;;;;;;18.45;34.10;94697.59;5050156;28;20037;-68
2021/05/10 00:16:17;;;;;;;4.53;1.60;;;;;;;18.27;34.43;94703.19;5043254;28;20052;-68
2021/05/10 00:18:43;;;;;;;2.28;1.50;;;;;;;18.40;34.10;94701.25;5049082;28;20064;-68
2021/05/10 00:21:08;;;;;;;1.55;1.45;;;;;;;18.30;34.34;94701.75;5052061;28;20486;-68
2021/05/10 00:23:34;;;;;;;3.10;1.50;;;;;;;18.32;34.30;94704.84;5048919;28;20056;-68
2021/05/10 00:25:59;;;;;;;2.08;1.60;;;;;;;18.22;34.76;94705.34;5047351;28;20518;-68
2021/05/10 00:28:25;;;;;;;1.73;1.40;;;;;;;18.22;34.61;94708.75;5045170;28;20034;-68
2021/05/10 00:30:50;;;;;;;3.45;1.50;;;;;;;18.12;34.90;94712.66;5043971;28;20046;-68
2021/05/10 00:33:16;;;;;;;4.05;1.55;;;;;;;18.07;35.34;94710.22;5051542;28;20179;-68
2021/05/10 00:35:42;;;;;;;1.88;1.40;;;;;;;18.00;35.04;94704.69;5032030;28;20045;-68
2021/05/10 00:38:07;;;;;;;1.65;1.45;;;;;;;17.96;35.52;94698.50;5035755;28;20037;-68
2021/05/10 00:40:33;;;;;;;2.60;1.55;;;;;;;17.91;35.30;94698.75;5034642;28;20069;-68
2021/05/10 00:43:00;;;;;;;3.00;1.40;;;;;;;17.91;35.50;94701.41;5031589;28;20057;-68
2021/05/10 00:45:26;;;;;;;3.08;1.63;;;;;;;17.82;35.58;94699.59;5032887;28;20048;-68
2021/05/10 00:47:52;;;;;;;1.95;1.30;;;;;;;17.72;35.74;94704.63;5040744;28;20466;-68
2021/05/10 00:50:19;;;;;;;1.45;1.35;;;;;;;17.54;36.23;94707.53;5049543;28;20069;-68
2021/05/10 00:52:45;;;;;;;2.97;1.58;;;;;;;17.26;36.94;94710.06;5034387;28;20046;-69
2021/05/10 00:55:12;;;;;;;2.65;1.60;;;;;;;16.93;38.67;94702.91;5035330;28;20037;-68
2021/05/10 00:57:46;;;;;;;2.40;1.50;;;;;;;16.77;38.58;94711.47;5042362;28;20041;-68
2021/05/10 01:00:14;;;;;;;1.50;1.40;;;;;;;17.17;36.99;94707.50;5039834;28;20053;-68
2021/05/10 01:02:43;;;;;;;1.70;1.40;;;;;;;17.43;36.38;94709.84;5031335;28;20054;-68
2021/05/10 01:05:09;;;;;;;2.30;1.60;;;;;;;17.45;36.26;94712.91;5033560;28;20107;-68
2021/05/10 01:07:37;;;;;;;2.58;1.60;;;;;;;17.58;35.59;94711.03;5033407;28;20044;-68
2021/05/10 01:10:09;;;;;;;2.03;1.50;;;;;;;17.86;34.79;94706.91;5041787;28;20037;-68
2021/05/10 01:12:36;;;;;;;2.10;1.50;;;;;;;17.80;34.79;94711.69;5042631;28;20041;-68
2021/05/10 01:15:02;;;;;;;2.70;1.45;;;;;;;17.76;34.88;94706.28;5044452;28;20045;-68
2021/05/10 01:17:28;;;;;;;1.63;1.35;;;;;;;17.79;34.69;94705.59;5044950;28;20047;-68
2021/05/10 01:19:53;;;;;;;1.63;1.52;;;;;;;17.67;35.35;94703.72;5035931;28;20063;-68
2021/05/10 01:22:19;;;;;;;5.03;1.73;;;;;;;17.62;35.38;94708.50;5031432;28;20063;-69
2021/05/10 01:24:45;;;;;;;1.63;1.52;;;;;;;17.59;35.42;94711.84;5034971;28;20037;-68
2021/05/10 01:27:11;;;;;;;2.13;1.65;;;;;;;17.60;35.47;94713.41;5030407;28;20285;-68
2021/05/10 01:29:37;;;;;;;3.25;1.50;;;;;;;17.62;35.32;94711.16;5035580;28;20049;-68
2021/05/10 01:32:04;;;;;;;3.33;1.52;;;;;;;17.59;35.49;94703.84;5040739;28;20291;-68
2021/05/10 01:34:29;;;;;;;3.28;1.40;;;;;;;17.47;35.83;94700.09;5035144;28;20538;-68
2021/05/10 01:36:55;;;;;;;2.67;1.60;;;;;;;17.40;35.67;94705.19;5038039;28;20065;-68
2021/05/10 01:39:20;;;;;;;2.40;1.55;;;;;;;17.40;35.73;94705.19;5030616;28;20056;-68
2021/05/10 01:41:46;;;;;;;2.72;1.50;;;;;;;17.29;36.31;94698.75;5038276;28;20038;-68
2021/05/10 01:44:11;;;;;;;5.07;1.60;;;;;;;17.22;36.20;94706.50;5041143;28;20041;-68
2021/05/10 01:46:37;;;;;;;1.88;1.42;;;;;;;17.21;36.40;94702.28;5030182;28;20041;-68
2021/05/10 01:49:03;;;;;;;2.08;1.52;;;;;;;17.14;36.27;94703.59;5031075;28;20042;-68
2021/05/10 01:51:28;;;;;;;3.05;1.60;;;;;;;17.08;37.09;94704.94;5034812;28;20045;-68
2021/05/10 01:53:54;;;;;;;2.05;1.60;;;;;;;16.91;37.02;94710.41;5037893;28;20051;-68
2021/05/10 01:56:20;;;;;;;2.65;1.50;;;;;;;16.82;37.43;94701.75;5029100;28;20046;-68
2021/05/10 01:58:55;;;;;;;1.95;1.40;;;;;;;16.75;37.39;94703.06;5030263;28;20132;-68
2021/05/10 02:01:22;;;;;;;2.78;1.23;;;;;;;16.69;37.82;94709.66;5037339;28;20048;-68
2021/05/10 02:03:48;;;;;;;2.80;1.58;;;;;;;16.61;37.82;94707.91;5060711;28;20110;-68
2021/05/10 02:06:13;;;;;;;3.58;1.40;;;;;;;16.65;37.43;94706.13;5044382;28;20487;-68
2021/05/10 02:08:39;;;;;;;1.95;1.60;;;;;;;16.57;37.70;94709.66;5044390;28;20160;-68
2021/05/10 02:11:05;;;;;;;2.78;1.80;;;;;;;16.46;38.36;94717.22;5044145;28;20502;-68
2021/05/10 02:13:31;;;;;;;3.30;1.75;;;;;;;16.31;38.76;94721.28;5049594;28;20501;-68
2021/05/10 02:16:02;;;;;;;1.98;1.60;;;;;;;16.05;39.46;94714.28;5044898;28;20040;-68
2021/05/10 02:18:33;;;;;;;1.80;1.50;;;;;;;16.04;40.04;94717.25;5048101;28;20093;-68
2021/05/10 02:21:00;;;;;;;3.03;1.60;;;;;;;16.03;39.66;94708.53;5037343;28;20040;-68
2021/05/10 02:23:28;;;;;;;2.63;1.40;;;;;;;16.03;39.37;94703.22;5039327;28;20495;-68
2021/05/10 02:25:59;;;;;;;3.45;1.40;;;;;;;16.09;39.27;94704.56;5039311;28;20041;-69
2021/05/10 02:28:28;;;;;;;3.10;1.50;;;;;;;16.18;38.84;94709.03;5049783;28;20058;-68
2021/05/10 02:30:55;;;;;;;2.75;1.50;;;;;;;16.18;39.04;94706.38;5034013;28;20045;-68
2021/05/10 02:33:23;;;;;;;1.52;1.40;;;;;;;16.22;38.16;94713.38;5044113;28;20064;-68
2021/05/10 02:35:52;;;;;;;3.03;1.52;;;;;;;16.30;37.94;94714.41;5052873;28;20040;-68
2021/05/10 02:38:18;;;;;;;1.50;1.40;;;;;;;16.50;37.48;94712.06;5042348;28;20045;-68
2021/05/10 02:40:46;;;;;;;1.60;1.50;;;;;;;16.45;37.48;94705.06;5045212;28;20041;-68
2021/05/10 02:43:12;;;;;;;4.28;1.60;;;;;;;16.38;37.37;94705.59;5045289;28;20044;-68
2021/05/10 02:45:38;;;;;;;3.33;1.50;;;;;;;16.37;37.67;94708.56;5042697;28;20117;-68
2021/05/10 02:48:04;;;;;;;2.88;1.48;;;;;;;16.39;37.64;94706.34;5040861;28;20172;-68
2021/05/10 02:50:30;;;;;;;2.03;1.40;;;;;;;16.36;37.67;94713.09;5033952;28;20104;-68
2021/05/10 02:52:56;;;;;;;3.15;1.60;;;;;;;16.33;37.47;94712.97;5036340;28;20440;-68
2021/05/10 02:55:21;;;;;;;1.98;1.40;;;;;;;16.22;37.99;94709.94;5036016;28;20044;-68
2021/05/10 02:57:48;;;;;;;2.30;1.40;;;;;;;16.24;38.32;94710.41;5050613;28;20076;-68
2021/05/10 03:00:17;;;;;;;1.95;1.60;;;;;;;16.16;38.51;94703.28;5037660;28;20041;-68
2021/05/10 03:02:42;;;;;;;1.48;1.38;;;;;;;15.92;38.76;94702.03;5043218;28;20037;-68
2021/05/10 03:05:10;;;;;;;2.38;1.40;;;;;;;15.92;39.02;94704.69;5051130;28;20041;-68
2021/05/10 03:07:36;;;;;;;1.58;1.48;;;;;;;15.81;39.56;94698.22;5048813;28;20048;-68
2021/05/10 03:10:05;;;;;;;1.80;1.40;;;;;;;15.72;39.44;94696.34;5043039;28;20037;-68
2021/05/10 03:12:31;;;;;;;1.60;1.45;;;;;;;15.56;40.43;94703.34;5033997;28;20041;-68
2021/05/10 03:14:57;;;;;;;2.92;1.40;;;;;;;15.27;42.90;94707.53;5039154;28;20037;-68
2021/05/10 03:17:22;;;;;;;3.50;1.58;;;;;;;15.03;42.89;94698.25;5036900;28;20036;-68
2021/05/10 03:19:48;;;;;;;4.38;1.50;;;;;;;14.82;45.12;94694.72;5052982;28;20124;-68
2021/05/10 03:22:14;;;;;;;4.28;1.70;;;;;;;14.77;44.30;94697.53;5038595;28;20103;-68
2021/05/10 03:24:40;;;;;;;2.17;1.60;;;;;;;14.62;44.39;94693.53;5044670;28;20037;-68
2021/05/10 03:27:07;;;;;;;2.28;1.50;;;;;;;14.68;43.55;94695.72;5048232;28;20280;-68
2021/05/10 03:29:32;;;;;;;2.10;1.52;;;;;;;14.63;45.66;94681.84;5052365;28;20049;-68
2021/05/10 03:31:58;;;;;;;4.05;1.60;;;;;;;14.53;44.31;94690.88;5037854;28;20306;-68
2021/05/10 03:34:24;;;;;;;2.33;1.63;;;;;;;14.44;45.41;94700.69;5039606;28;20554;-68
2021/05/10 03:36:49;;;;;;;2.05;1.58;;;;;;;14.40;44.26;94710.34;5038119;28;20045;-68
2021/05/10 03:39:15;;;;;;;2.50;1.60;;;;;;;14.45;44.37;94704.88;5037895;28;20042;-68
2021/05/10 03:41:40;;;;;;;3.38;1.67;;;;;;;14.44;44.40;94714.72;5032798;28;20038;-68
2021/05/10 03:44:06;;;;;;;2.50;1.50;;;;;;;14.48;44.27;94720.13;5049686;28;20453;-68
2021/05/10 03:46:32;;;;;;;2.00;1.48;;;;;;;14.44;44.65;94719.19;5043305;28;20085;-68
2021/05/10 03:48:57;;;;;;;2.03;1.40;;;;;;;14.20;46.46;94721.25;5042949;28;20550;-68
2021/05/10 03:51:23;;;;;;;2.28;1.50;;;;;;;14.03;48.66;94716.72;5035134;28;20056;-68
2021/05/10 03:53:48;;;;;;;2.20;1.40;;;;;;;13.91;47.97;94713.91;5043406;28;20049;-68
2021/05/10 03:56:14;;;;;;;3.00;1.42;;;;;;;13.74;49.22;94709.38;5041748;28;20106;-68
2021/05/10 03:58:39;;;;;;;3.65;1.70;;;;;;;13.66;49.74;94708.28;5043246;28;20053;-68
2021/05/10 04:01:05;;;;;;;2.03;1.50;;;;;;;13.92;48.18;94712.84;5034220;28;20108;-68
2021/05/10 04:03:40;;;;;;;1.90;1.58;;;;;;;13.80;51.25;94702.06;5036849;28;20037;-68
2021/05/10 04:06:21;;;;;;;4.80;1.60;;;;;;;13.54;56.48;94700.16;5032378;28;20037;-68
2021/05/10 04:14:01;;;;;;;2.85;1.60;;;;;;;13.50;55.33;94710.59;5051640;28;20060;-68
2021/05/10 04:16:28;;;;;;;6.60;1.70;;;;;;;13.50;53.15;94715.06;5046791;28;20045;-68
2021/05/10 04:18:53;;;;;;;1.98;1.60;;;;;;;13.45;54.25;94715.22;5043581;28;20388;-68
2021/05/10 04:21:19;;;;;;;2.75;1.60;;;;;;;13.46;50.58;94724.69;5050564;28;20067;-68
2021/05/10 04:23:44;;;;;;;3.47;1.40;;;;;;;13.98;47.97;94730.09;5044207;28;20510;-68
2021/05/10 04:26:10;;;;;;;2.95;1.60;;;;;;;14.22;48.08;94723.56;5040362;28;20052;-68
2021/05/10 04:28:36;;;;;;;3.10;1.50;;;;;;;14.14;50.78;94721.72;5036887;28;20478;-68
2021/05/10 04:31:01;;;;;;;1.92;1.50;;;;;;;14.12;49.54;94713.31;5034340;28;20056;-68
2021/05/10 04:33:37;;;;;;;2.40;1.65;;;;;;;13.97;52.70;94717.19;5045006;28;20110;-68
2021/05/10 04:36:03;;;;;;;8.90;1.98;;;;;;;13.93;57.05;94709.09;5040879;28;20091;-68
2021/05/10 04:38:29;;;;;;;4.65;1.60;;;;;;;13.55;60.08;94707.00;5041698;28;20049;-68
2021/05/10 04:40:55;;;;;;;2.20;1.60;;;;;;;13.58;60.19;94709.03;5034128;28;20103;-68
2021/05/10 04:43:22;;;;;;;2.80;1.70;;;;;;;13.50;59.75;94720.34;5035887;28;20506;-68
2021/05/10 04:45:48;;;;;;;3.88;1.88;;;;;;;13.45;60.88;94707.31;5031529;28;20112;-68
2021/05/10 04:48:13;;;;;;;2.53;1.50;;;;;;;13.59;57.66;94718.53;5030941;28;20117;-68
2021/05/10 04:50:39;;;;;;;2.42;1.77;;;;;;;13.64;55.55;94723.66;5036813;28;20052;-68
2021/05/10 04:53:10;;;;;;;4.03;1.70;;;;;;;13.82;54.90;94731.63;5044121;28;20040;-68
2021/05/10 04:55:36;;;;;;;4.13;1.75;;;;;;;13.95;54.62;94741.31;5041003;28;20060;-68
2021/05/10 04:58:01;;;;;;;4.88;2.00;;;;;;;14.09;53.54;94740.38;5045021;28;20036;-68
2021/05/10 05:00:27;;;;;;;2.15;1.55;;;;;;;14.13;53.56;94741.31;5048771;28;20045;-68
2021/05/10 05:02:52;;;;;;;3.42;1.70;;;;;;;14.06;60.37;94741.78;5046379;28;20043;-68
2021/05/10 05:05:18;;;;;;;6.72;1.70;;;;;;;14.14;54.36;94748.94;5039713;28;20045;-68
2021/05/10 05:07:43;;;;;;;3.78;1.80;;;;;;;14.38;51.02;94759.09;5040492;28;20045;-68
2021/05/10 05:10:10;;;;;;;3.95;1.70;;;;;;;14.55;51.67;94773.41;5034427;28;20041;-68
2021/05/10 05:12:39;;;;;;;1.98;1.60;;;;;;;14.71;52.22;94755.97;5040369;28;20498;-68
2021/05/10 05:15:07;;;;;;;3.55;1.52;;;;;;;14.97;48.60;94757.00;5040763;28;20111;-68
2021/05/10 05:17:33;;;;;;;6.40;2.00;;;;;;;15.06;49.76;94766.50;5040600;28;20522;-68
2021/05/10 05:19:59;;;;;;;3.92;1.70;;;;;;;15.31;48.71;94766.72;5031359;28;20407;-68
2021/05/10 05:22:25;;;;;;;4.35;1.88;;;;;;;15.47;46.27;94758.25;5033184;28;20045;-68
2021/05/10 05:24:50;;;;;;;3.05;1.70;;;;;;;15.65;46.41;94765.03;5040447;28;20517;-68
2021/05/10 05:27:16;;;;;;;5.35;1.63;;;;;;;15.76;46.54;94763.59;5030446;28;20037;-68
2021/05/10 05:29:41;;;;;;;3.65;1.67;;;;;;;16.01;45.14;94761.13;5035417;28;20091;-68
2021/05/10 05:32:07;;;;;;;2.97;1.42;;;;;;;16.20;44.33;94768.66;5030920;28;20503;-68
2021/05/10 05:34:32;;;;;;;4.50;1.65;;;;;;;16.43;43.53;94776.31;5039828;28;20042;-68
2021/05/10 05:36:58;;;;;;;3.70;1.70;;;;;;;16.58;42.34;94777.59;5046561;28;20134;-68
2021/05/10 05:39:23;;;;;;;4.45;1.70;;;;;;;16.74;42.50;94781.22;5033149;28;20061;-68
2021/05/10 05:41:49;;;;;;;3.33;1.70;;;;;;;17.03;41.78;94776.13;5030690;28;20048;-68
2021/05/10 05:44:14;;;;;;;5.03;1.60;;;;;;;17.30;41.59;94774.75;5038407;28;20045;-68
2021/05/10 05:46:47;;;;;;;3.65;1.83;;;;;;;17.47;41.19;94777.22;5039819;28;20469;-68
2021/05/10 05:49:13;;;;;;;4.50;1.88;;;;;;;17.71;41.29;94783.66;5029759;28;20052;-68
2021/05/10 05:51:38;;;;;;;2.95;1.73;;;;;;;17.93;39.97;94784.34;5030822;28;20037;-68
2021/05/10 05:54:04;;;;;;;5.90;1.67;;;;;;;18.23;38.71;94786.75;5032509;28;20109;-68
2021/05/10 05:56:31;;;;;;;3.10;1.63;;;;;;;18.50;37.25;94786.03;5038415;28;20071;-68
2021/05/10 05:58:56;;;;;;;3.92;1.50;;;;;;;18.42;39.40;94792.28;5037836;28;20049;-68
2021/05/10 06:01:24;;;;;;;3.72;1.50;;;;;;;18.65;37.94;94792.53;5036328;28;20049;-68
2021/05/10 06:03:51;;;;;;;5.40;1.60;;;;;;;19.02;36.29;94791.63;5042013;28;20521;-68
2021/05/10 06:06:17;;;;;;;3.10;1.60;;;;;;;19.37;34.66;94791.03;5043075;28;20570;-68
2021/05/10 06:08:42;;;;;;;2.78;1.67;;;;;;;19.50;34.41;94786.38;5032889;28;20113;-68
2021/05/10 06:11:09;;;;;;;2.55;1.50;;;;;;;19.66;34.12;94784.47;5042522;28;20033;-68
2021/05/10 06:13:36;;;;;;;2.70;1.50;;;;;;;19.72;34.17;94787.66;5031226;28;20096;-68
2021/05/10 06:16:01;;;;;;;3.00;1.70;;;;;;;19.76;34.00;94783.19;5031669;28;20091;-68
2021/05/10 06:18:27;;;;;;;2.72;1.55;;;;;;;19.76;34.37;94785.09;5046888;28;20453;-68
2021/05/10 06:20:53;;;;;;;3.10;1.52;;;;;;;19.81;34.04;94790.97;5030473;28;20041;-69
2021/05/10 06:23:18;;;;;;;2.30;1.60;;;;;;;19.89;34.78;94787.31;5036789;28;20053;-69
2021/05/10 06:25:44;;;;;;;4.35;1.50;;;;;;;19.87;36.01;94788.81;5039230;28;20064;-68
2021/05/10 06:28:10;;;;;;;3.10;1.60;;;;;;;20.10;34.69;94796.97;5048959;28;20426;-68
2021/05/10 06:30:35;;;;;;;4.20;1.60;;;;;;;20.25;34.38;94788.13;5038372;28;20037;-69
2021/05/10 06:33:01;;;;;;;3.80;1.60;;;;;;;20.34;34.84;94784.47;5030169;28;20044;-68
2021/05/10 06:35:26;;;;;;;2.38;1.60;;;;;;;20.31;35.22;94779.84;5039318;28;20043;-68
2021/05/10 06:37:52;;;;;;;2.78;1.67;;;;;;;20.45;33.67;94774.03;5038815;28;20038;-68
2021/05/10 06:40:18;;;;;;;2.58;1.60;;;;;;;20.46;33.87;94780.91;5032647;28;20092;-68
2021/05/10 06:42:43;;;;;;;3.22;1.70;;;;;;;20.53;33.40;94786.41;5031528;28;20042;-69
2021/05/10 06:45:09;;;;;;;6.25;1.70;;;;;;;20.69;33.10;94789.81;5047874;28;20411;-68
2021/05/10 06:47:39;;;;;;;3.95;1.63;;;;;;;20.74;33.24;94792.19;5039124;28;20407;-68
2021/05/10 06:50:06;;;;;;;4.57;1.90;;;;;;;20.92;32.68;94797.91;5029563;28;20036;-69
2021/05/10 06:52:33;;;;;;;2.75;1.50;;;;;;;21.13;32.82;94799.44;5044316;28;20111;-69
2021/05/10 06:54:58;;;;;;;3.03;1.55;;;;;;;21.41;32.46;94812.56;5043296;28;20106;-68
2021/05/10 06:57:24;;;;;;;1.70;1.60;;;;;;;21.60;31.43;94811.75;5043240;28;20449;-68
2021/05/10 06:59:49;;;;;;;4.55;1.65;;;;;;;21.73;31.52;94816.94;5046053;28;20044;-69
2021/05/10 07:02:15;;;;;;;3.00;1.63;;;;;;;21.87;31.78;94822.53;5047010;28;20438;-68
2021/05/10 07:04:40;;;;;;;3.38;1.60;;;;;;;21.94;30.86;94819.94;5038743;28;20491;-69
2021/05/10 07:07:06;;;;;;;3.28;1.60;;;;;;;22.08;29.96;94818.63;5038651;28;20042;-68
2021/05/10 07:09:32;;;;;;;5.72;1.70;;;;;;;22.16;30.38;94822.94;5036341;28;20037;-68
2021/05/10 07:11:57;;;;;;;3.08;1.60;;;;;;;22.04;29.95;94823.13;5046261;28;20033;-69
2021/05/10 07:14:23;;;;;;;4.72;1.70;;;;;;;22.01;31.19;94821.19;5039739;28;20037;-68
2021/05/10 07:16:49;;;;;;;2.53;1.60;;;;;;;21.96;30.37;94823.03;5045590;28;20087;-68
2021/05/10 07:19:14;;;;;;;2.83;1.50;;;;;;;21.95;31.03;94816.16;5044725;28;20529;-68
2021/05/10 07:21:40;;;;;;;2.33;1.50;;;;;;;21.88;31.08;94818.72;5039835;28;20033;-68
2021/05/10 07:24:06;;;;;;;2.78;1.55;;;;;;;21.85;30.88;94829.34;5048415;28;20039;-68
2021/05/10 07:26:32;;;;;;;2.97;1.77;;;;;;;21.87;31.43;94833.22;5047228;28;20040;-68
2021/05/10 07:28:57;;;;;;;3.70;1.70;;;;;;;21.84;31.70;94833.16;5047660;28;20128;-68
2021/05/10 07:31:24;;;;;;;5.60;1.60;;;;;;;21.94;31.47;94837.94;5049891;28;20120;-69
2021/05/10 07:33:51;;;;;;;2.85;1.42;;;;;;;22.02;30.14;94838.81;5038699;28;20038;-72
2021/05/10 07:36:16;;;;;;;4.72;1.70;;;;;;;22.04;30.30;94841.91;5032531;28;20044;-71
2021/05/10 07:38:42;;;;;;;5.28;1.70;;;;;;;22.14;29.43;94836.72;5037481;28;20042;-71
2021/05/10 07:41:07;;;;;;;4.15;1.50;;;;;;;22.25;30.11;94836.84;5043565;28;20060;-70
2021/05/10 07:43:33;;;;;;;5.40;2.03;;;;;;;22.25;30.26;94826.13;5040680;28;20037;-70
2021/05/10 07:45:59;;;;;;;2.95;1.80;;;;;;;22.43;29.45;94821.06;5035922;28;20120;-70
2021/05/10 07:48:24;;;;;;;4.15;1.60;;;;;;;22.42;28.39;94808.03;5030834;28;20042;-69
2021/05/10 07:50:50;;;;;;;6.15;1.75;;;;;;;22.48;29.33;94809.25;5038688;28;20125;-70
2021/05/10 07:53:15;;;;;;;4.43;1.80;;;;;;;22.66;28.98;94812.94;5043381;28;20037;-70
2021/05/10 07:55:41;;;;;;;1.50;1.35;;;;;;;22.69;28.51;94816.03;5033384;28;20053;-70
2021/05/10 07:58:07;;;;;;;3.97;1.75;;;;;;;22.82;29.14;94810.06;5039107;28;20044;-70
2021/05/10 08:00:36;;;;;;;3.17;1.42;;;;;;;22.84;29.63;94807.00;5033474;28;20491;-70
2021/05/10 08:03:13;;;;;;;2.95;1.60;;;;;;;22.93;27.82;94798.69;5038364;28;20052;-70
2021/05/10 08:05:40;;;;;;;2.97;1.60;;;;;;;23.00;28.11;94793.41;5048644;28;20048;-70
2021/05/10 08:08:13;;;;;;;3.53;1.70;;;;;;;22.76;29.61;94789.31;5031760;28;20423;-70
2021/05/10 08:10:39;;;;;;;2.45;1.60;;;;;;;22.75;29.25;94787.75;5041922;28;20120;-71
2021/05/10 08:13:04;;;;;;;2.55;1.40;;;;;;;22.87;29.48;94786.75;5039557;28;20029;-70
2021/05/10 08:15:30;;;;;;;1.73;1.40;;;;;;;23.26;26.79;94795.25;5038325;28;20056;-70
2021/05/10 08:17:55;;;;;;;6.88;1.50;;;;;;;23.28;27.34;94782.22;5035567;28;20072;-70
2021/05/10 08:20:21;;;;;;;5.30;1.70;;;;;;;23.27;30.26;94780.66;5048888;28;20410;-70
2021/05/10 08:22:47;;;;;;;3.13;1.50;;;;;;;23.41;27.87;94781.97;5050908;28;20055;-69
2021/05/10 08:25:13;;;;;;;2.90;1.58;;;;;;;23.22;30.17;94781.03;5036833;28;20121;-71
2021/05/10 08:27:39;;;;;;;2.20;1.45;;;;;;;23.41;27.99;94773.91;5042417;28;20214;-69
2021/05/10 08:30:07;;;;;;;3.45;1.58;;;;;;;23.30;30.84;94768.44;5049376;28;20033;-69
2021/05/10 08:32:33;;;;;;;5.28;1.55;;;;;;;23.50;29.12;94760.94;5047155;28;20076;-69
2021/05/10 08:34:59;;;;;;;4.05;1.60;;;;;;;23.57;29.92;94771.75;5031856;28;20747;-69
2021/05/10 08:37:27;;;;;;;2.03;1.58;;;;;;;23.64;28.78;94771.78;5036687;28;20033;-70
2021/05/10 08:39:52;;;;;;;2.85;1.60;;;;;;;23.66;29.15;94763.38;5034629;28;20049;-69
2021/05/10 08:42:18;;;;;;;5.00;1.70;;;;;;;23.88;28.87;94769.72;5033475;28;20042;-69
2021/05/10 08:44:43;;;;;;;4.82;1.50;;;;;;;23.96;25.90;94771.28;5038136;28;20033;-69
2021/05/10 08:47:09;;;;;;;2.45;1.50;;;;;;;24.12;26.47;94772.94;5030649;28;20037;-68
2021/05/10 08:49:35;;;;;;;2.60;1.50;;;;;;;24.00;27.28;94766.72;5038703;28;20569;-68
2021/05/10 08:52:00;;;;;;;3.85;1.67;;;;;;;24.24;27.06;94767.25;5044561;28;20044;-68
2021/05/10 08:54:27;;;;;;;3.13;1.50;;;;;;;24.31;26.47;94759.22;5040399;28;20441;-68
2021/05/10 08:56:54;;;;;;;2.92;1.58;;;;;;;24.26;28.10;94762.25;5039161;28;20041;-68
2021/05/10 08:59:21;;;;;;;3.97;1.67;;;;;;;24.16;29.73;94760.28;5036422;28;20053;-68
2021/05/10 09:01:58;;;;;;;2.75;1.50;;;;;;;24.54;27.06;94761.63;5039050;28;20037;-69
2021/05/10 09:04:43;;;;;;;3.08;1.60;;;;;;;24.67;24.97;94770.19;5040851;28;20061;-69
2021/05/10 09:07:24;;;;;;;5.20;1.60;;;;;;;24.90;24.96;94761.03;5045419;28;20678;-68
2021/05/10 09:09:59;;;;;;;4.78;1.83;;;;;;;25.08;26.08;94751.09;5029986;28;20045;-68
2021/05/10 09:12:45;;;;;;;3.63;1.63;;;;;;;25.32;26.02;94746.16;5028565;28;20061;-69
2021/05/10 09:15:28;;;;;;;4.13;1.50;;;;;;;25.22;24.81;94744.19;5033983;28;20076;-69
2021/05/10 09:18:01;;;;;;;3.03;1.60;;;;;;;25.37;24.84;94729.63;5029997;28;20038;-70
2021/05/10 09:21:16;;;;;;;3.80;1.63;;;;;;;25.54;26.09;94730.00;5078849;27;20475;-70
2021/05/10 09:23:42;;;;;;;4.70;1.75;;;;;;;25.70;25.00;94725.00;5057811;28;20044;-67
2021/05/10 09:26:08;;;;;;;6.43;1.80;;;;;;;25.71;24.35;94720.38;5057159;28;20037;-73
2021/05/10 09:28:41;;;;;;;4.38;1.75;;;;;;;25.72;23.16;94717.28;5062602;28;20482;-68
2021/05/10 09:31:12;;;;;;;3.30;1.80;;;;;;;25.39;26.18;94708.44;5049477;28;20041;-68
2021/05/10 09:33:46;;;;;;;6.63;1.70;;;;;;;25.07;26.28;94717.25;5061593;28;20045;-68
2021/05/10 09:36:30;;;;;;;3.72;1.50;;;;;;;25.48;24.39;94718.06;5059789;28;20041;-67
2021/05/10 09:38:56;;;;;;;;;;;;;;;25.60;23.91;94725.75;5059546;28;20055;-70
2021/05/10 09:41:22;;;;;;;1.70;1.50;;;;;;;25.61;24.13;94727.31;5064430;28;19920;-67
2021/05/10 09:44:00;;;;;;;3.83;1.60;;;;;;;25.86;24.30;94715.72;5064890;28;20041;-67
2021/05/10 09:46:43;;;;;;;5.50;1.50;;;;;;;25.85;23.86;94719.59;5061157;28;20048;-68
2021/05/10 09:49:12;;;;;;;3.08;1.73;;;;;;;25.94;23.63;94733.44;5065096;28;20549;-68
2021/05/10 09:51:39;;;;;;;3.60;1.70;;;;;;;26.01;22.69;94738.84;5061076;28;20487;-68
2021/05/10 09:54:14;;;;;;;2.38;1.50;;;;;;;26.05;22.81;94728.81;5055594;28;20040;-68
2021/05/10 09:56:41;;;;;;;2.90;1.70;;;;;;;26.21;22.82;94735.72;5056713;28;20410;-68
2021/05/10 09:59:16;;;;;;;2.65;1.70;;;;;;;26.47;22.35;94731.78;5075231;28;20093;-68
2021/05/10 10:01:44;;;;;;;3.47;1.63;;;;;;;26.54;21.49;94733.69;5079984;28;20452;-69
2021/05/10 10:04:11;;;;;;;5.40;2.15;;;;;;;26.75;23.05;94727.44;5057716;28;20509;-68
2021/05/10 10:06:37;;;;;;;4.53;1.77;;;;;;;26.89;24.01;94734.72;5050595;28;20415;-69
2021/05/10 10:09:04;;;;;;;2.72;1.55;;;;;;;27.23;22.99;94726.03;5052807;28;20051;-68
2021/05/10 10:11:29;;;;;;;4.38;1.80;;;;;;;27.37;21.77;94715.16;5048867;28;20044;-68
2021/05/10 10:13:56;;;;;;;2.53;1.65;;;;;;;27.64;22.82;94722.66;5051488;28;20045;-68
2021/05/10 10:16:27;;;;;;;4.28;1.77;;;;;;;27.94;21.70;94729.34;5060638;28;20045;-68
2021/05/10 10:18:57;;;;;;;3.80;1.60;;;;;;;28.29;21.34;94725.53;5064821;28;20045;-68
2021/05/10 10:21:23;;;;;;;3.88;1.63;;;;;;;28.61;22.48;94720.94;5064831;28;20045;-68
2021/05/10 10:24:03;;;;;;;2.95;1.85;;;;;;;28.93;22.84;94717.06;5060177;28;20638;-68
2021/05/10 10:26:29;;;;;;;4.03;2.00;;;;;;;29.73;20.32;94720.13;5057826;28;20127;-68
2021/05/10 10:28:57;;;;;;;2.90;1.80;;;;;;;30.57;17.26;94710.13;5090465;28;20126;-69
2021/05/10 10:31:33;;;;;;;7.38;1.90;;;;;;;31.40;19.36;94718.44;5046885;28;20033;-69
2021/05/10 10:34:09;;;;;;;6.32;1.90;;;;;;;31.42;20.07;94718.78;5062245;28;20056;-69
2021/05/10 10:36:44;;;;;;;3.78;1.90;;;;;;;31.82;18.79;94721.31;5045929;28;20087;-69
2021/05/10 10:39:19;;;;;;;3.38;2.03;;;;;;;31.19;18.93;94725.91;5041576;28;20048;-69
2021/05/10 10:42:06;;;;;;;3.45;2.03;;;;;;;30.82;20.34;94719.69;5051677;28;20140;-69
2021/05/10 10:44:42;;;;;;;3.22;1.75;;;;;;;31.10;19.19;94723.00;5062020;28;20033;-69
2021/05/10 10:47:11;;;;;;;4.00;2.00;;;;;;;31.14;19.98;94726.41;5045611;28;20036;-69
2021/05/10 10:49:42;;;;;;;6.55;2.10;;;;;;;31.57;20.62;94727.41;5042376;28;20099;-69
2021/05/10 10:52:18;;;;;;;3.22;1.80;;;;;;;30.97;20.28;94731.00;5033511;28;20523;-69
2021/05/10 10:54:44;;;;;;;4.85;2.30;;;;;;;30.97;20.04;94727.53;5057939;28;20093;-69
2021/05/10 10:57:09;;;;;;;8.82;2.10;;;;;;;31.27;20.12;94727.25;5047973;28;20033;-69
2021/05/10 10:59:37;;;;;;;4.70;2.13;;;;;;;32.58;19.13;94741.91;5052041;28;20112;-69
2021/05/10 11:02:17;;;;;;;4.53;2.28;;;;;;;33.25;16.57;94737.69;5044954;28;20037;-69
2021/05/10 11:04:43;;;;;;;5.35;2.35;;;;;;;33.74;17.76;94733.06;5049809;28;20045;-69
2021/05/10 11:07:10;;;;;;;3.65;2.45;;;;;;;34.21;15.96;94721.38;5045626;28;20502;-70
2021/05/10 11:09:52;;;;;;;4.43;2.35;;;;;;;34.62;16.81;94732.44;5040127;28;20415;-69
2021/05/10 11:12:49;;;;;;;4.88;2.30;;;;;;;34.88;16.72;94724.88;5056532;28;20045;-71
2021/05/10 11:15:41;;;;;;;3.38;2.13;;;;;;;34.47;15.41;94721.28;5041197;28;20052;-70
2021/05/10 11:18:07;;;;;;;4.32;2.35;;;;;;;34.95;15.30;94710.94;5047211;28;20040;-70
2021/05/10 11:20:51;;;;;;;4.93;2.40;;;;;;;35.82;12.64;94713.09;5051830;28;20052;-71
2021/05/10 11:23:28;;;;;;;4.38;2.38;;;;;;;35.96;13.87;94712.50;5042562;28;20044;-70
2021/05/10 11:25:55;;;;;;;3.75;2.10;;;;;;;34.96;13.78;94707.00;5039811;28;20053;-71
2021/05/10 11:28:27;;;;;;;5.15;2.20;;;;;;;34.18;14.55;94705.88;5044219;28;20048;-70
2021/05/10 11:31:10;;;;;;;5.05;2.35;;;;;;;35.24;13.59;94715.31;5043885;28;20049;-70
2021/05/10 11:33:51;;;;;;;6.55;2.42;;;;;;;34.39;14.15;94720.00;5040868;28;20107;-70
2021/05/10 11:36:30;;;;;;;6.05;2.15;;;;;;;34.31;13.51;94723.00;5045838;28;20037;-70
2021/05/10 11:38:57;;;;;;;6.85;2.20;;;;;;;34.28;15.01;94715.69;5048766;28;20045;-70
2021/05/10 11:41:41;;;;;;;5.00;2.03;;;;;;;35.07;14.10;94712.06;5049585;28;20037;-70
2021/05/10 11:44:08;;;;;;;7.22;2.20;;;;;;;35.50;13.46;94709.63;5041836;28;20045;-70